Time;durP1;ratioP1;P1;durP2;ratioP2;P2;SDS_P1;SDS_P2;PMS_P1;PMS_P2;Temp;Humidity;BMP_temperature;BMP_pressure;BME280_temperature;BME280_humidity;BME280_pressure;Samples;Min_cycle;Max_cycle;Signal;HPM_P1;HPM_P2
2022/04/19 00:00:46;;;;;;;7.43;3.05;;;;;;;4.70;70.16;101021.53;5098885;28;20044;-63
2022/04/19 00:03:15;;;;;;;6.20;2.05;;;;;;;4.67;70.89;101022.31;5100019;28;20063;-63
2022/04/19 00:05:45;;;;;;;3.95;1.73;;;;;;;4.63;70.79;101023.06;5099332;28;20052;-63
2022/04/19 00:08:13;;;;;;;5.05;2.35;;;;;;;4.58;71.42;101016.13;5099461;28;20070;-63
2022/04/19 00:10:44;;;;;;;4.97;1.65;;;;;;;4.53;71.43;101021.16;5102154;28;20059;-63
2022/04/19 00:13:20;;;;;;;4.80;1.92;;;;;;;4.50;72.44;101010.84;5103411;28;20124;-63
2022/04/19 00:15:49;;;;;;;4.57;1.60;;;;;;;4.50;72.56;101007.41;5095333;28;20059;-63
2022/04/19 00:18:19;;;;;;;4.05;1.45;;;;;;;4.49;72.67;101008.22;5100694;28;20070;-63
2022/04/19 00:20:47;;;;;;;3.88;1.33;;;;;;;4.48;73.02;101006.50;5100536;28;20044;-63
2022/04/19 00:23:14;;;;;;;2.88;1.30;;;;;;;4.46;73.21;101000.47;5103222;28;20088;-63
2022/04/19 00:25:44;;;;;;;6.85;1.65;;;;;;;4.43;74.56;100999.56;5101856;28;20113;-63
2022/04/19 00:28:11;;;;;;;4.72;1.40;;;;;;;4.44;74.39;101009.00;5094338;28;20055;-63
2022/04/19 00:30:39;;;;;;;3.42;1.65;;;;;;;4.45;74.29;101004.75;5097175;28;20062;-63
2022/04/19 00:33:10;;;;;;;3.58;1.42;;;;;;;4.47;73.68;101004.78;5099814;28;20103;-63
2022/04/19 00:35:39;;;;;;;6.70;1.88;;;;;;;4.46;74.30;101008.19;5099669;28;20453;-63
2022/04/19 00:38:07;;;;;;;4.35;2.17;;;;;;;4.42;75.56;100997.84;5100207;28;20048;-63
2022/04/19 00:40:35;;;;;;;4.40;1.60;;;;;;;4.43;75.07;100999.56;5097292;27;20056;-63
2022/04/19 00:43:08;;;;;;;6.45;1.80;;;;;;;4.49;74.17;101008.22;5100938;28;20055;-63
2022/04/19 00:45:35;;;;;;;4.22;1.38;;;;;;;4.53;74.41;101005.75;5095271;28;20055;-63
2022/04/19 00:48:05;;;;;;;3.45;1.50;;;;;;;4.57;74.37;101004.97;5101059;28;20055;-63
2022/04/19 00:50:33;;;;;;;3.17;1.63;;;;;;;4.60;74.50;100993.91;5093553;28;20365;-63
2022/04/19 00:53:03;;;;;;;3.40;1.35;;;;;;;4.65;74.10;100989.72;5098499;28;20503;-63
2022/04/19 00:55:32;;;;;;;6.30;1.80;;;;;;;4.70;73.36;100965.03;5104860;28;20051;-63
2022/04/19 00:58:00;;;;;;;2.85;1.50;;;;;;;4.73;73.96;100970.22;5099251;28;20044;-63
2022/04/19 01:00:29;;;;;;;7.28;1.77;;;;;;;4.76;73.76;100962.59;5102008;28;20051;-63
2022/04/19 01:02:56;;;;;;;4.53;1.45;;;;;;;4.79;73.51;100964.34;5101478;28;20059;-63
2022/04/19 01:05:24;;;;;;;3.55;2.08;;;;;;;4.83;73.06;100959.28;5100643;28;20061;-63
2022/04/19 01:07:52;;;;;;;3.72;1.40;;;;;;;4.85;72.42;100957.59;5097556;28;20083;-63
2022/04/19 01:10:22;;;;;;;3.55;1.20;;;;;;;4.90;72.39;100956.00;5101538;28;20054;-63
2022/04/19 01:15:34;;;;;;;4.57;1.65;;;;;;;4.95;71.87;100954.38;5098075;28;20067;-63
2022/04/19 01:18:03;;;;;;;3.55;1.30;;;;;;;4.96;71.80;100956.09;5102042;28;20051;-63
2022/04/19 01:20:33;;;;;;;6.32;1.67;;;;;;;4.94;72.47;100957.78;5102311;28;20074;-63
2022/04/19 01:23:02;;;;;;;4.35;1.55;;;;;;;4.95;72.13;100954.38;5101113;28;20047;-63
2022/04/19 01:25:30;;;;;;;5.15;1.77;;;;;;;4.92;72.18;100954.31;5099999;28;20091;-63
2022/04/19 01:27:57;;;;;;;6.43;1.48;;;;;;;4.93;72.25;100953.47;5097879;28;20055;-63
2022/04/19 01:30:25;;;;;;;3.58;1.45;;;;;;;4.95;71.46;100956.94;5106290;28;20093;-63
2022/04/19 01:32:53;;;;;;;4.97;1.80;;;;;;;4.93;71.75;100962.88;5103051;28;20050;-63
2022/04/19 01:35:22;;;;;;;3.00;1.40;;;;;;;4.91;72.41;100970.56;5097569;28;20044;-63
2022/04/19 01:37:52;;;;;;;5.30;1.63;;;;;;;4.93;71.79;100966.31;5100001;28;20075;-63
2022/04/19 01:40:21;;;;;;;4.13;1.63;;;;;;;4.91;71.84;100962.84;5100079;28;20074;-63
2022/04/19 01:42:53;;;;;;;7.00;1.70;;;;;;;4.91;71.97;100957.72;5096686;28;20085;-63
2022/04/19 01:45:23;;;;;;;4.75;1.45;;;;;;;4.93;71.56;100945.78;5102489;28;20423;-63
2022/04/19 01:47:59;;;;;;;6.30;2.00;;;;;;;4.94;71.79;100942.34;5100935;28;20119;-63
2022/04/19 01:50:29;;;;;;;3.47;1.58;;;;;;;4.93;72.42;100940.63;5105725;28;20067;-63
2022/04/19 01:52:59;;;;;;;2.47;1.30;;;;;;;4.95;72.17;100943.22;5099841;28;20063;-63
2022/04/19 01:55:27;;;;;;;6.57;1.65;;;;;;;4.98;71.60;100953.56;5098664;28;20479;-63
2022/04/19 01:57:56;;;;;;;5.05;2.03;;;;;;;4.98;72.07;100954.41;5100730;28;20059;-63
2022/04/19 02:00:25;;;;;;;5.03;1.80;;;;;;;5.00;71.65;100957.00;5097173;28;20078;-63
2022/04/19 02:02:55;;;;;;;3.30;1.30;;;;;;;5.01;72.23;100949.34;5104131;28;20039;-63
2022/04/19 02:05:23;;;;;;;5.10;1.50;;;;;;;5.01;71.97;100951.03;5103349;28;20070;-63
2022/04/19 02:07:53;;;;;;;3.90;1.52;;;;;;;4.98;72.03;100953.56;5102567;28;20044;-63
2022/04/19 02:10:21;;;;;;;4.18;1.60;;;;;;;4.97;72.51;100947.56;5095856;28;20137;-63
2022/04/19 02:12:51;;;;;;;5.10;2.22;;;;;;;4.98;73.38;100940.72;5103722;28;20371;-63
2022/04/19 02:15:19;;;;;;;5.43;2.00;;;;;;;5.00;73.52;100939.91;5096084;28;20490;-63
2022/04/19 02:17:50;;;;;;;4.22;1.77;;;;;;;5.06;72.59;100937.44;5102170;28;20055;-63
2022/04/19 02:20:19;;;;;;;4.78;1.80;;;;;;;5.08;72.92;100937.47;5100014;28;20075;-63
2022/04/19 02:22:47;;;;;;;4.72;2.00;;;;;;;5.11;72.41;100947.78;5097875;28;20048;-63
2022/04/19 02:25:19;;;;;;;5.25;1.90;;;;;;;5.18;72.35;100951.31;5101066;28;20058;-63
2022/04/19 02:27:49;;;;;;;4.25;2.17;;;;;;;5.20;72.37;100944.50;5101612;28;20058;-63
2022/04/19 02:30:21;;;;;;;5.50;2.30;;;;;;;5.23;72.92;100949.72;5099609;28;20774;-63
2022/04/19 02:32:51;;;;;;;4.38;1.95;;;;;;;5.25;72.71;100948.03;5096058;28;20072;-63
2022/04/19 02:35:20;;;;;;;4.10;1.98;;;;;;;5.27;72.74;100951.50;5103618;28;20062;-63
2022/04/19 02:37:49;;;;;;;2.85;1.40;;;;;;;5.28;72.24;100942.97;5100024;28;20144;-63
2022/04/19 02:40:18;;;;;;;3.95;1.40;;;;;;;5.29;72.92;100944.69;5104079;28;20051;-63
2022/04/19 02:42:46;;;;;;;7.22;2.05;;;;;;;5.27;72.63;100942.09;5098410;28;20076;-63
2022/04/19 02:45:13;;;;;;;5.40;1.77;;;;;;;5.28;72.55;100945.53;5102779;28;20055;-63
2022/04/19 02:47:44;;;;;;;7.75;1.80;;;;;;;5.32;72.61;100939.59;5104571;28;20044;-63
2022/04/19 02:50:12;;;;;;;5.40;1.77;;;;;;;5.35;72.40;100934.50;5101281;28;20083;-63
2022/04/19 02:52:39;;;;;;;4.50;1.50;;;;;;;5.37;72.70;100933.69;5103684;28;20060;-63
2022/04/19 02:55:10;;;;;;;6.25;1.80;;;;;;;5.37;72.61;100943.97;5099960;28;20385;-63
2022/04/19 02:57:37;;;;;;;4.90;1.70;;;;;;;5.39;72.45;100936.28;5092750;28;20048;-63
2022/04/19 03:00:08;;;;;;;6.22;1.63;;;;;;;5.41;72.96;100944.88;5095989;28;20070;-63
2022/04/19 03:02:35;;;;;;;2.97;1.52;;;;;;;5.43;72.83;100955.19;5106309;28;20479;-63
2022/04/19 03:05:05;;;;;;;5.68;1.52;;;;;;;5.43;73.24;100948.34;5093219;28;20047;-63
2022/04/19 03:07:33;;;;;;;3.00;1.55;;;;;;;5.44;72.85;100950.06;5101144;28;20056;-63
2022/04/19 03:09:59;;;;;;;4.53;1.80;;;;;;;5.44;72.66;100949.19;5101949;28;20067;-63
2022/04/19 03:12:28;;;;;;;6.55;1.55;;;;;;;5.44;73.05;100944.91;5100382;28;20054;-63
2022/04/19 03:14:55;;;;;;;7.15;1.90;;;;;;;5.45;73.11;100949.22;5105170;28;20075;-63
2022/04/19 03:17:21;;;;;;;6.05;1.75;;;;;;;5.48;72.85;100941.56;5102186;28;20056;-63
2022/04/19 03:19:50;;;;;;;2.67;1.60;;;;;;;5.51;72.32;100946.75;5104213;28;20079;-63
2022/04/19 03:22:21;;;;;;;6.10;2.50;;;;;;;5.51;72.62;100936.47;5104503;28;20048;-63
2022/04/19 03:27:47;;;;;;;;;;;;;;;5.50;73.24;100941.59;5043041;28;20041;-63
2022/04/19 03:30:15;;;;;;;5.53;1.83;;;;;;;5.51;72.68;100939.03;5087010;28;19924;-63
2022/04/19 03:32:44;;;;;;;5.85;1.70;;;;;;;5.52;72.48;100938.19;5102453;28;20134;-63
2022/04/19 03:35:20;;;;;;;8.25;2.40;;;;;;;5.55;72.46;100943.38;5104401;28;20040;-63
2022/04/19 03:37:48;;;;;;;10.50;2.40;;;;;;;5.57;72.40;100936.56;5105281;28;20058;-62
2022/04/19 03:40:16;;;;;;;3.17;2.13;;;;;;;5.61;72.02;100933.19;5111261;28;20056;-63
2022/04/19 03:42:45;;;;;;;5.72;2.10;;;;;;;5.61;72.00;100943.47;5102159;28;20051;-63
2022/04/19 03:45:11;;;;;;;3.53;1.70;;;;;;;5.61;72.43;100953.75;5103747;28;20048;-63
2022/04/19 03:47:39;;;;;;;6.72;1.77;;;;;;;5.62;72.47;100960.63;5098129;28;20052;-63
2022/04/19 03:50:07;;;;;;;4.13;2.05;;;;;;;5.60;72.52;100957.16;5116723;28;20471;-63
2022/04/19 03:52:36;;;;;;;7.63;2.10;;;;;;;5.63;72.73;100962.34;5110788;28;20047;-63
2022/04/19 03:55:06;;;;;;;4.28;1.52;;;;;;;5.64;72.71;100952.94;5102404;28;20051;-63
2022/04/19 03:57:35;;;;;;;5.32;2.58;;;;;;;5.65;72.89;100958.09;5109023;28;20048;-63
2022/04/19 04:00:06;;;;;;;5.32;2.13;;;;;;;5.67;72.94;100958.13;5102145;28;20101;-63
2022/04/19 04:02:34;;;;;;;7.88;2.00;;;;;;;5.65;73.47;100945.25;5107201;28;20052;-63
2022/04/19 04:05:04;;;;;;;5.30;1.60;;;;;;;5.66;73.42;100944.41;5104253;28;20491;-63
2022/04/19 04:07:37;;;;;;;7.68;2.00;;;;;;;5.71;73.16;100949.63;5103195;28;20400;-63
2022/04/19 04:10:09;;;;;;;4.57;1.80;;;;;;;5.73;73.34;100954.81;5100220;28;20048;-63
2022/04/19 04:12:36;;;;;;;5.38;2.00;;;;;;;5.76;73.32;100953.16;5104918;28;20348;-63
2022/04/19 04:15:03;;;;;;;7.75;2.15;;;;;;;5.78;72.99;100955.75;5101343;28;20048;-63
2022/04/19 04:17:31;;;;;;;6.45;2.20;;;;;;;5.78;73.62;100955.75;5105756;28;20048;-63
2022/04/19 04:19:59;;;;;;;6.68;2.00;;;;;;;5.80;73.52;100956.63;5104131;28;20056;-63
2022/04/19 04:22:36;;;;;;;4.60;2.10;;;;;;;5.81;74.00;100968.66;5099970;28;20047;-63
2022/04/19 04:25:06;;;;;;;5.85;2.28;;;;;;;5.86;73.68;100974.72;5103997;28;20461;-63
2022/04/19 04:27:36;;;;;;;7.68;2.45;;;;;;;5.85;73.96;100970.41;5099458;28;20060;-63
2022/04/19 04:30:06;;;;;;;4.55;2.00;;;;;;;5.87;73.93;100971.31;5102815;28;20048;-63
2022/04/19 04:32:33;;;;;;;5.68;1.90;;;;;;;5.92;73.38;100980.00;5100852;28;20101;-63
2022/04/19 04:35:01;;;;;;;7.82;2.60;;;;;;;5.96;73.64;100974.03;5101382;28;20048;-63
2022/04/19 04:37:29;;;;;;;6.68;2.70;;;;;;;5.98;73.67;100982.66;5106237;28;20043;-63
2022/04/19 04:39:56;;;;;;;8.27;3.10;;;;;;;6.00;73.41;100984.41;5100017;28;20047;-63
2022/04/19 04:42:25;;;;;;;8.02;2.80;;;;;;;6.04;73.42;100987.88;5101879;28;20052;-63
2022/04/19 04:44:53;;;;;;;8.57;2.70;;;;;;;6.07;73.05;100984.47;5112124;28;20044;-63
2022/04/19 04:50:08;;;;;;;7.28;2.60;;;;;;;6.02;71.70;100992.13;5096391;28;20063;-63
2022/04/19 04:52:36;;;;;;;7.35;3.30;;;;;;;6.04;71.95;100989.59;5100581;28;20043;-63
2022/04/19 04:55:05;;;;;;;7.68;2.55;;;;;;;6.01;71.59;100986.13;5102011;28;20044;-63
2022/04/19 04:57:39;;;;;;;6.78;2.28;;;;;;;6.03;71.33;100993.88;5100235;28;20075;-63
2022/04/19 05:00:08;;;;;;;5.95;2.53;;;;;;;6.04;71.43;100987.88;5099394;28;20052;-63
2022/04/19 05:02:36;;;;;;;6.55;2.40;;;;;;;6.07;71.69;100999.91;5102054;28;22226;-63
2022/04/19 05:05:04;;;;;;;6.95;2.45;;;;;;;6.06;71.46;100998.19;5100798;28;20043;-63
2022/04/19 05:07:32;;;;;;;5.10;2.50;;;;;;;6.06;71.80;100999.06;5101313;28;20060;-63
2022/04/19 05:10:00;;;;;;;4.75;2.80;;;;;;;6.08;71.88;100997.38;5093052;28;20058;-63
2022/04/19 05:12:28;;;;;;;7.15;3.00;;;;;;;6.09;71.88;100993.94;5104117;28;20051;-63
2022/04/19 05:15:00;;;;;;;5.68;2.78;;;;;;;6.07;72.41;101000.78;5099505;28;20047;-63
2022/04/19 05:17:29;;;;;;;5.82;3.25;;;;;;;6.08;72.19;100991.34;5101704;28;20364;-63
2022/04/19 05:19:57;;;;;;;7.68;3.25;;;;;;;6.13;72.08;100993.16;5101466;28;20048;-63
2022/04/19 05:22:25;;;;;;;6.18;2.90;;;;;;;6.11;72.24;100992.25;5102212;28;20468;-63
2022/04/19 05:24:52;;;;;;;5.85;2.58;;;;;;;6.08;71.84;100992.22;5105301;28;20054;-63
2022/04/19 05:27:21;;;;;;;9.10;3.17;;;;;;;6.16;71.57;100989.75;5102820;28;20051;-63
2022/04/19 05:29:50;;;;;;;6.82;2.63;;;;;;;6.18;71.23;100988.06;5098556;28;20060;-63
2022/04/19 05:32:20;;;;;;;9.82;2.67;;;;;;;6.26;71.03;100982.19;5095927;28;20044;-63
2022/04/19 05:34:49;;;;;;;9.77;2.60;;;;;;;6.32;71.05;100984.84;5105051;28;20051;-63
2022/04/19 05:37:16;;;;;;;6.60;2.63;;;;;;;6.37;70.18;100978.91;5102433;28;20051;-61
2022/04/19 05:39:44;;;;;;;5.43;2.65;;;;;;;6.44;69.72;100980.69;5099885;28;20059;-61
2022/04/19 05:42:12;;;;;;;10.45;3.00;;;;;;;6.51;69.26;100982.50;5098379;28;20397;-61
2022/04/19 05:44:40;;;;;;;8.82;2.92;;;;;;;6.58;68.41;100984.28;5111941;28;20047;-60
2022/04/19 05:47:09;;;;;;;13.00;2.50;;;;;;;6.73;67.26;100983.59;5096848;28;20043;-61
2022/04/19 05:49:46;;;;;;;8.95;2.58;;;;;;;6.80;66.67;100981.13;5103528;28;20112;-61
2022/04/19 05:52:14;;;;;;;8.85;2.53;;;;;;;6.92;65.18;100972.66;5093758;28;20064;-61
2022/04/19 05:54:43;;;;;;;8.93;2.40;;;;;;;7.03;63.91;100988.25;5092694;28;20181;-60
2022/04/19 05:57:11;;;;;;;6.78;2.05;;;;;;;7.14;62.95;100992.66;5099680;28;20047;-61
2022/04/19 05:59:38;;;;;;;8.30;1.80;;;;;;;7.26;60.85;100991.91;5101040;28;20125;-61
2022/04/19 06:05:15;;;;;;;4.53;1.13;;;;;;;7.47;58.34;100992.09;5076262;28;20047;-61
2022/04/19 06:07:47;;;;;;;6.10;1.45;;;;;;;7.56;57.54;100997.34;5076682;28;20121;-58
2022/04/19 06:10:16;;;;;;;3.65;1.10;;;;;;;7.63;56.97;100994.81;5075196;28;20063;-60
2022/04/19 06:12:43;;;;;;;6.10;1.63;;;;;;;7.71;56.53;101011.19;5075940;28;20060;-60
2022/04/19 06:15:11;;;;;;;3.22;1.73;;;;;;;7.80;55.73;101003.53;5076825;28;20473;-60
2022/04/19 06:17:40;;;;;;;2.50;1.20;;;;;;;7.84;54.24;101013.06;5077513;28;20265;-61
2022/04/19 06:20:13;;;;;;;11.52;1.88;;;;;;;7.97;53.60;101012.28;5077611;28;20056;-60
2022/04/19 06:22:41;;;;;;;5.97;1.65;;;;;;;8.24;54.18;101022.75;5093939;28;20399;-63
2022/04/19 06:25:11;;;;;;;7.25;1.83;;;;;;;8.44;53.01;101025.50;5098207;28;20112;-63
2022/04/19 06:27:39;;;;;;;4.78;1.63;;;;;;;8.62;53.34;101027.31;5101510;28;20052;-57
2022/04/19 06:30:08;;;;;;;4.45;1.80;;;;;;;8.70;53.43;101017.00;5105961;28;20047;-58
2022/04/19 06:32:35;;;;;;;11.93;2.10;;;;;;;8.78;53.18;101012.72;5106985;28;20048;-60
2022/04/19 06:35:05;;;;;;;5.90;1.77;;;;;;;8.76;53.92;101025.63;5109033;28;20421;-62
2022/04/19 06:37:35;;;;;;;4.15;1.60;;;;;;;8.82;53.91;101020.47;5100897;28;20453;-62
2022/04/19 06:40:06;;;;;;;3.83;1.65;;;;;;;8.90;54.08;101037.78;5108675;28;20858;-61
2022/04/19 06:42:33;;;;;;;3.33;1.40;;;;;;;8.91;54.46;101039.50;5102938;28;20449;-62
2022/04/19 06:45:01;;;;;;;3.63;1.65;;;;;;;8.96;54.31;101037.78;5107659;28;20136;-62
2022/04/19 06:47:31;;;;;;;4.85;1.55;;;;;;;8.99;54.01;101033.50;5109071;28;20051;-60
2022/04/19 06:50:02;;;;;;;5.25;1.48;;;;;;;9.01;54.38;101030.91;5101832;28;20047;-62
2022/04/19 06:52:34;;;;;;;3.28;1.25;;;;;;;9.10;53.63;101030.94;5110437;28;20040;-61
2022/04/19 06:55:11;;;;;;;4.03;1.58;;;;;;;9.23;53.77;101036.97;5109256;28;20063;-62
2022/04/19 06:57:39;;;;;;;2.85;1.13;;;;;;;9.35;53.96;101037.88;5116035;28;20116;-62
2022/04/19 07:00:08;;;;;;;5.65;1.50;;;;;;;9.44;53.32;101045.66;5104703;28;20116;-63
2022/04/19 07:02:36;;;;;;;7.53;1.60;;;;;;;9.47;53.33;101043.06;5108706;28;20054;-63
2022/04/19 07:05:05;;;;;;;3.60;0.98;;;;;;;9.56;52.50;101043.94;5106688;28;20376;-61
2022/04/19 07:07:37;;;;;;;2.78;1.40;;;;;;;9.60;52.02;101040.50;5114530;28;20071;-62
2022/04/19 07:10:13;;;;;;;2.67;1.10;;;;;;;9.63;52.23;101038.78;5114801;28;20048;-61
2022/04/19 07:12:41;;;;;;;;;;;;;;;9.57;51.43;101045.66;5112183;28;20079;-61
2022/04/19 07:15:09;;;;;;;5.25;1.75;;;;;;;9.59;52.04;101036.19;5106176;28;19931;-61
2022/04/19 07:17:41;;;;;;;10.32;1.90;;;;;;;9.58;52.48;101018.94;5102403;28;20080;-61
2022/04/19 07:28:34;;;;;;;4.93;1.33;;;;;;;9.68;52.29;101062.94;5106949;28;20301;-60
2022/04/19 07:31:03;;;;;;;45.45;3.05;;;;;;;9.74;51.56;101059.47;5099891;28;20135;-62
2022/04/19 07:33:31;;;;;;;4.85;1.42;;;;;;;9.76;51.68;101055.16;5100009;28;20044;-63
2022/04/19 07:36:01;;;;;;;2.80;1.35;;;;;;;9.82;50.77;101039.63;5103001;28;20555;-67
2022/04/19 07:38:31;;;;;;;2.97;1.38;;;;;;;9.85;50.98;101055.16;5103333;28;20507;-58
2022/04/19 07:41:04;;;;;;;4.10;1.40;;;;;;;9.82;51.31;101039.63;5098778;28;20135;-59
2022/04/19 07:43:32;;;;;;;2.65;1.30;;;;;;;9.77;51.18;101051.72;5105947;28;20143;-62
2022/04/19 07:46:00;;;;;;;15.25;1.85;;;;;;;9.80;51.26;101062.06;5112837;28;20062;-64
2022/04/19 07:48:27;;;;;;;5.22;1.30;;;;;;;9.75;51.25;101056.03;5103043;28;20044;-61
2022/04/19 07:50:55;;;;;;;6.28;1.77;;;;;;;9.81;50.66;101063.78;5102835;28;20062;-63
2022/04/19 07:53:23;;;;;;;3.13;1.10;;;;;;;9.77;51.18;101056.88;5103882;28;20059;-61
2022/04/19 07:55:51;;;;;;;2.58;1.25;;;;;;;9.88;50.37;101064.66;5102394;28;20075;-58
2022/04/19 07:58:21;;;;;;;3.40;1.40;;;;;;;10.03;49.93;101052.59;5097447;28;20456;-58
2022/04/19 08:00:48;;;;;;;1.95;1.10;;;;;;;10.15;49.68;101061.19;5107693;28;20050;-58
2022/04/19 08:03:17;;;;;;;3.58;1.38;;;;;;;10.29;49.86;101077.59;5102208;28;20504;-58
2022/04/19 08:05:52;;;;;;;4.50;1.52;;;;;;;10.45;49.33;101063.78;5100636;28;20159;-57
2022/04/19 08:08:22;;;;;;;2.60;1.45;;;;;;;10.50;48.84;101046.47;5100063;28;20143;-58
2022/04/19 08:10:49;;;;;;;10.25;1.67;;;;;;;10.64;49.29;101055.06;5101490;28;20051;-59
2022/04/19 08:13:24;;;;;;;2.95;1.40;;;;;;;10.54;48.95;101048.19;5103899;27;20138;-57
2022/04/19 08:15:54;;;;;;;;;;;;;;;10.50;51.57;101056.84;5102991;28;20040;-59
2022/04/19 08:18:22;;;;;;;6.07;1.80;;;;;;;10.51;51.52;101055.97;5102626;28;20047;-62
2022/04/19 08:20:51;;;;;;;9.85;2.60;;;;;;;10.60;52.29;101039.53;5101303;28;20109;-60
2022/04/19 08:23:21;;;;;;;5.78;2.00;;;;;;;10.73;52.14;101048.97;5107641;28;20056;-64
2022/04/19 08:25:49;;;;;;;4.53;1.30;;;;;;;10.78;52.02;101041.19;5102139;28;20059;-60
2022/04/19 08:28:22;;;;;;;3.83;1.65;;;;;;;10.83;52.56;101044.63;5102163;28;20052;-62
2022/04/19 08:30:50;;;;;;;7.05;1.58;;;;;;;10.82;52.51;101042.91;5102672;28;20055;-59
2022/04/19 08:33:25;;;;;;;8.10;1.60;;;;;;;10.83;52.62;101052.41;5102221;28;20059;-61
2022/04/19 08:35:57;;;;;;;5.00;1.80;;;;;;;10.77;52.71;101055.03;5102941;28;20051;-59
2022/04/19 08:38:26;;;;;;;20.33;2.65;;;;;;;10.72;52.96;101068.88;5100397;28;20535;-60
2022/04/19 08:40:54;;;;;;;9.10;2.20;;;;;;;10.74;52.33;101067.13;5101622;28;20062;-63
2022/04/19 08:43:23;;;;;;;12.13;2.72;;;;;;;10.77;52.68;101070.56;5101976;28;20463;-63
2022/04/19 08:45:53;;;;;;;11.82;2.50;;;;;;;10.81;52.84;101061.91;5104401;28;20079;-61
2022/04/19 08:48:26;;;;;;;10.93;2.38;;;;;;;10.70;53.95;101069.75;5094871;28;20054;-62
2022/04/19 08:51:03;;;;;;;3.05;1.90;;;;;;;10.67;53.95;101070.63;5104585;28;20483;-62
2022/04/19 08:59:04;;;;;;;3.90;2.10;;;;;;;10.65;54.01;101071.50;5102055;28;19923;-60
2022/04/19 09:01:32;;;;;;;5.85;2.00;;;;;;;10.77;54.02;101061.06;5100326;28;20059;-59
2022/04/19 09:04:04;;;;;;;3.95;1.80;;;;;;;10.92;54.01;101065.31;5099572;28;20437;-60
2022/04/19 09:07:00;;;;;;;9.07;2.38;;;;;;;10.91;53.86;101061.00;5105033;28;20055;-58
2022/04/19 09:09:29;;;;;;;7.75;2.00;;;;;;;10.93;53.67;101072.25;5068825;28;20162;-61
2022/04/19 09:12:09;;;;;;;6.03;1.67;;;;;;;11.03;53.57;101067.03;5105111;28;20051;-61
2022/04/19 09:14:55;;;;;;;7.35;1.90;;;;;;;11.05;53.03;101072.19;5106843;28;20035;-61
2022/04/19 09:17:32;;;;;;;5.57;2.58;;;;;;;10.91;53.99;101084.34;5104902;28;20436;-62
2022/04/19 09:20:15;;;;;;;4.45;1.92;;;;;;;10.90;54.09;101088.66;5097889;28;20388;-62
2022/04/19 09:22:43;;;;;;;9.35;2.60;;;;;;;10.94;53.42;101099.94;5102486;28;20048;-61
2022/04/19 09:25:18;;;;;;;8.30;2.50;;;;;;;10.89;53.25;101075.72;5108219;28;20090;-62
2022/04/19 09:27:47;;;;;;;12.35;2.22;;;;;;;10.89;53.00;101086.09;5102252;28;20047;-61
2022/04/19 09:30:25;;;;;;;4.95;2.30;;;;;;;10.96;52.77;101082.63;5113728;28;20395;-60
2022/04/19 09:33:08;;;;;;;9.07;2.78;;;;;;;10.95;52.04;101086.09;5098384;28;20052;-60
2022/04/19 09:35:37;;;;;;;7.03;2.28;;;;;;;10.98;52.06;101086.06;5106142;28;20465;-60
2022/04/19 09:38:07;;;;;;;12.05;2.80;;;;;;;10.96;52.28;101088.69;5097381;28;20052;-60
2022/04/19 09:40:37;;;;;;;8.30;2.40;;;;;;;10.93;52.17;101086.09;5103968;28;20051;-61
2022/04/19 09:43:16;;;;;;;6.90;2.10;;;;;;;11.02;52.29;101085.19;5101967;28;21236;-61
2022/04/19 09:45:58;;;;;;;4.25;1.95;;;;;;;11.17;51.82;101087.69;5102971;28;20059;-61
2022/04/19 09:48:29;;;;;;;3.78;1.88;;;;;;;11.23;52.55;101092.84;5094312;28;20051;-61
2022/04/19 09:51:05;;;;;;;57.42;5.82;;;;;;;11.30;51.96;101093.69;5099620;28;20044;-61
2022/04/19 09:53:40;;;;;;;6.68;2.47;;;;;;;11.36;51.32;101094.50;5100959;28;20051;-61
2022/04/19 09:56:18;;;;;;;5.60;2.15;;;;;;;11.32;51.62;101107.50;5101853;28;20055;-61
2022/04/19 09:58:47;;;;;;;5.55;2.30;;;;;;;11.22;52.64;101098.91;5098555;28;20349;-61
2022/04/19 10:09:37;;;;;;;3.72;1.80;;;;;;;11.52;51.24;101097.91;5104230;28;20090;-62
2022/04/19 10:12:11;;;;;;;4.13;1.98;;;;;;;11.68;50.50;101099.50;5109690;28;20052;-62
2022/04/19 10:14:39;;;;;;;10.65;2.60;;;;;;;11.81;49.40;101097.72;5107384;28;20427;-62
2022/04/19 10:17:08;;;;;;;4.63;2.30;;;;;;;11.85;48.90;101104.59;5100722;28;20062;-60
2022/04/19 10:19:36;;;;;;;3.22;2.00;;;;;;;11.91;48.98;101109.75;5100226;28;20055;-61
2022/04/19 10:22:07;;;;;;;6.80;1.90;;;;;;;11.96;48.76;101105.38;5114248;28;20058;-62
2022/04/19 10:24:52;;;;;;;8.90;2.40;;;;;;;11.99;48.89;101102.78;5108860;28;20058;-62
2022/04/19 10:27:30;;;;;;;5.15;2.08;;;;;;;12.07;48.92;101107.06;5114392;28;20127;-62
2022/04/19 10:29:57;;;;;;;5.22;2.17;;;;;;;12.02;49.29;101108.84;5104177;28;20055;-63
2022/04/19 10:32:33;;;;;;;6.63;2.38;;;;;;;12.08;49.99;101108.78;5112343;28;20047;-63
2022/04/19 10:35:02;;;;;;;5.15;2.50;;;;;;;12.16;49.83;101104.38;5113431;28;20126;-63
2022/04/19 10:37:30;;;;;;;4.88;2.22;;;;;;;12.21;49.61;101102.59;5111657;28;20052;-63
2022/04/19 10:40:12;;;;;;;4.88;2.30;;;;;;;12.25;48.84;101104.28;5107066;28;20047;-61
2022/04/19 10:42:42;;;;;;;5.80;2.10;;;;;;;12.23;48.82;101111.22;5113935;28;20387;-62
2022/04/19 10:45:20;;;;;;;7.68;2.28;;;;;;;12.12;47.18;101113.06;5110913;28;20059;-62
2022/04/19 10:48:07;;;;;;;7.30;2.25;;;;;;;12.06;47.71;101107.94;5111068;28;20494;-62
2022/04/19 10:50:39;;;;;;;6.43;2.53;;;;;;;12.06;48.54;101114.00;5105732;28;20075;-62
2022/04/19 10:53:10;;;;;;;2.95;1.80;;;;;;;12.15;48.14;101113.03;5113048;28;20051;-58
2022/04/19 10:55:40;;;;;;;4.50;2.20;;;;;;;12.12;48.05;101113.06;5112403;28;20101;-61
2022/04/19 10:58:34;;;;;;;5.35;2.20;;;;;;;12.18;47.86;101115.63;5110220;28;20047;-61
2022/04/19 11:01:02;;;;;;;5.03;2.45;;;;;;;12.19;47.68;101114.75;5110208;28;20548;-61
2022/04/19 11:03:52;;;;;;;18.88;3.65;;;;;;;12.14;47.03;101119.97;5110246;28;20051;-61
2022/04/19 11:06:37;;;;;;;4.43;2.03;;;;;;;12.06;46.92;101119.19;5110389;28;20047;-61
2022/04/19 11:09:28;;;;;;;7.32;2.22;;;;;;;12.13;46.97;101120.00;5103046;28;20052;-60
2022/04/19 11:12:09;;;;;;;14.95;2.85;;;;;;;12.09;47.22;101107.91;5112588;28;20047;-61
2022/04/19 11:14:41;;;;;;;4.35;2.20;;;;;;;12.16;47.64;101112.16;5102158;28;20120;-60
2022/04/19 11:17:32;;;;;;;9.48;2.80;;;;;;;12.38;48.73;101115.41;5110640;28;20062;-64
2022/04/19 11:20:15;;;;;;;4.80;2.63;;;;;;;12.61;48.14;101111.72;5107474;28;20131;-64
2022/04/19 11:23:03;;;;;;;5.90;2.63;;;;;;;12.66;47.05;101111.69;5111385;28;20345;-64
2022/04/19 11:25:40;;;;;;;6.20;2.40;;;;;;;12.67;46.84;101108.19;5109641;28;20052;-64
2022/04/19 11:28:30;;;;;;;8.05;2.38;;;;;;;12.81;46.76;101116.72;5111085;28;20122;-64
2022/04/19 11:31:16;;;;;;;4.53;2.45;;;;;;;12.91;46.72;101109.66;5106647;27;20044;-64
2022/04/19 11:33:44;;;;;;;8.63;2.50;;;;;;;13.01;46.91;101106.09;5108699;28;20191;-65
2022/04/19 11:36:16;;;;;;;6.68;2.40;;;;;;;13.19;46.45;101107.63;5113583;28;20166;-64
2022/04/19 11:38:47;;;;;;;9.00;2.50;;;;;;;13.34;46.17;101102.19;5107821;28;20055;-63
2022/04/19 11:46:53;;;;;;;7.93;3.35;;;;;;;13.11;44.99;101099.88;5097974;28;20094;-62
2022/04/19 11:49:34;;;;;;;6.20;2.75;;;;;;;13.10;46.14;101103.38;5105122;28;20051;-62
2022/04/19 11:52:08;;;;;;;7.82;3.08;;;;;;;13.17;46.51;101094.63;5102399;28;20131;-61
2022/04/19 11:54:39;;;;;;;7.07;3.40;;;;;;;13.09;46.28;101101.63;5104202;28;20461;-59
2022/04/19 11:57:08;;;;;;;9.15;3.10;;;;;;;13.15;46.38;101095.50;5108243;28;20051;-60
2022/04/19 11:59:38;;;;;;;6.40;2.70;;;;;;;13.20;46.75;101089.38;5102738;28;20366;-60
2022/04/19 12:02:14;;;;;;;11.00;3.53;;;;;;;13.31;46.63;101104.00;5107503;27;20043;-61
2022/04/19 12:04:49;;;;;;;5.07;2.40;;;;;;;13.43;46.51;101106.41;5103672;27;20425;-63
2022/04/19 12:07:20;;;;;;;5.85;2.80;;;;;;;13.51;46.24;101104.56;5111408;28;20055;-63
2022/04/19 12:09:50;;;;;;;7.00;2.90;;;;;;;13.49;46.22;101106.31;5115650;28;20051;-64
2022/04/19 12:12:19;;;;;;;6.55;2.80;;;;;;;13.45;46.10;101110.72;5115319;28;20055;-63
2022/04/19 12:14:50;;;;;;;4.57;2.72;;;;;;;13.48;46.39;101105.47;5115493;28;20105;-63
2022/04/19 12:17:20;;;;;;;6.70;2.60;;;;;;;13.49;46.24;101101.97;5114182;28;20079;-63
2022/04/19 12:19:48;;;;;;;8.00;2.92;;;;;;;13.40;46.20;101096.91;5115193;28;20051;-64
2022/04/19 12:22:18;;;;;;;7.43;2.80;;;;;;;13.34;46.58;101104.81;5105569;28;20064;-64
2022/04/19 12:24:49;;;;;;;8.50;3.25;;;;;;;13.21;46.81;101109.31;5111987;28;20083;-63
2022/04/19 12:27:27;;;;;;;6.85;2.70;;;;;;;13.11;47.10;101110.28;5103640;28;20067;-62